Pagrindinis puslapis
METAR-TAF:

METAR-TAF

Oro uostai :

Kuresarė, Estija

platuma: 58-13-48N, ilguma: 022-30-34E, Aukštis: 4 m

Dabartinis oras

Ataskaita buvo paskelbta 50 minutes, ne 06:50 UTC
Vėjas 11 kt iš Pietų/Pietvakarių
Temperatūra -2°C
Drėgmė 93%
Slėgis 1010 hPa
Matomumas: 2100 m
Apsiniaukę ne aukštis 800 ft
sniegas

METAR: EEKE 230650Z 20011KT 2100 SN OVC008 M02/M03 Q1010 R17/490195

Laikas: 09:40 (07:40 UTC)

Prognozė

Ataskaita buvo paskelbta 1 valandą ir 40 minutes, ne 06:00 UTC
Prognozė galioja nuo 23 metu 07 UTC su 23 metu 13 UTC
Vėjas 12 kt iš Pietų/Pietvakarių
Matomumas: 6000 m
Su prošvaistėmis ne aukštis 600 ft
Apsiniaukę ne aukštis 1000 ft
Laikinai
nuo 23 metu 07 UTC su 23 metu 13 UTC
Matomumas: 1000 m
Su prošvaistėmis ne aukštis 400 ft
Su prošvaistėmis ne aukštis 1500 ft, Liūtiniai kamuoliniai debesys.
sniegas, rūkana

TAF: EEKE 230600Z 2307/2313 20012KT 6000 BKN006 OVC010 TEMPO 2307/2313 1000 +SHSN BR BKN004 BKN015CB

Orai ataskaitas ir orų prognozės (METAR, TAF).

turimą stotys yra geltonos ir raudonos taškus žemėlapyje.

Perkelti pele per norėdami pamatyti stoties vardą.

Tada spustelėkite, norėdami matyti oro stebėjimo ir prognozės.

Norėdami pakeisti žemėlapį: spustelėkite ant žalios mygtukų su juodo kryžiaus žemyn,; žalią mygtuką su brūkšneliu, jei norite nutolinti; arba žalių rodyklių gretimoms žemėlapius.


METAR-TAF: